createdAt,value
2022-09-06T00:01:47.589Z,16.98
2022-09-06T00:04:17.884Z,16.93
2022-09-06T00:06:48.074Z,16.88
2022-09-06T00:09:19.330Z,16.74
2022-09-06T00:11:49.491Z,16.62
2022-09-06T00:14:19.654Z,16.57
2022-09-06T00:16:49.563Z,16.55
2022-09-06T00:19:19.407Z,16.32
2022-09-06T00:21:49.335Z,16.25
2022-09-06T00:24:20.820Z,16.49
2022-09-06T00:26:50.726Z,16.27
2022-09-06T00:29:20.688Z,16.30
2022-09-06T00:31:50.881Z,16.46
2022-09-06T00:34:20.884Z,16.51
2022-09-06T00:36:50.829Z,16.58
2022-09-06T00:39:22.160Z,16.50
2022-09-06T00:41:52.542Z,16.49
2022-09-06T00:44:22.543Z,16.37
2022-09-06T00:46:55.061Z,16.36
2022-09-06T00:49:27.249Z,16.41
2022-09-06T00:52:00.835Z,16.36
2022-09-06T00:54:32.792Z,16.27
2022-09-06T00:57:03.196Z,16.25
2022-09-06T00:59:36.547Z,16.26
2022-09-06T01:02:07.284Z,16.24
2022-09-06T01:04:39.651Z,16.26
2022-09-06T01:07:20.440Z,16.20
2022-09-06T01:10:07.512Z,16.15
2022-09-06T01:12:47.836Z,16.11
2022-09-06T01:15:30.023Z,16.37
2022-09-06T01:18:14.104Z,16.25
2022-09-06T01:20:54.306Z,16.24
2022-09-06T01:24:08.007Z,16.08
2022-09-06T01:27:12.799Z,15.96
2022-09-06T01:29:49.463Z,15.83
2022-09-06T01:32:27.530Z,16.01
2022-09-06T01:35:06.933Z,16.09
2022-09-06T01:37:37.433Z,15.82
2022-09-06T01:40:08.731Z,15.69
2022-09-06T01:42:41.632Z,15.65
2022-09-06T01:45:17.168Z,15.76
2022-09-06T01:47:55.924Z,15.74
2022-09-06T01:50:38.344Z,15.64
2022-09-06T01:53:17.955Z,15.71
2022-09-06T01:55:55.882Z,15.62
2022-09-06T01:58:42.243Z,15.68
2022-09-06T02:01:21.775Z,15.69
2022-09-06T02:03:59.466Z,15.59
2022-09-06T02:06:32.016Z,15.49
2022-09-06T02:09:07.667Z,15.47
2022-09-06T02:11:43.148Z,15.42
2022-09-06T02:14:19.953Z,15.42
2022-09-06T02:16:55.042Z,15.59
2022-09-06T02:19:32.948Z,15.47
2022-09-06T02:22:06.475Z,15.58
2022-09-06T02:24:40.775Z,15.52
2022-09-06T02:27:10.792Z,15.55
2022-09-06T02:29:40.802Z,15.50
2022-09-06T02:32:18.937Z,15.37
2022-09-06T02:34:49.265Z,15.40
2022-09-06T02:37:20.548Z,15.46
2022-09-06T02:39:50.541Z,15.38
2022-09-06T02:42:20.491Z,15.24
2022-09-06T02:44:50.565Z,15.34
2022-09-06T02:47:21.832Z,15.18
2022-09-06T02:49:51.739Z,15.08
2022-09-06T02:52:21.926Z,14.94
2022-09-06T02:54:51.991Z,14.97
2022-09-06T02:57:21.903Z,15.07
2022-09-06T02:59:52.079Z,15.08
2022-09-06T03:02:23.423Z,15.08
2022-09-06T03:04:53.595Z,14.96
2022-09-06T03:07:23.459Z,15.03
2022-09-06T03:09:53.553Z,15.23
2022-09-06T03:12:23.717Z,15.15
2022-09-06T03:14:55.144Z,15.20
2022-09-06T03:17:27.367Z,15.02
2022-09-06T03:19:57.738Z,14.90
2022-09-06T03:22:27.689Z,14.86
2022-09-06T03:24:57.607Z,14.84
2022-09-06T03:27:27.568Z,14.80
2022-09-06T03:29:57.825Z,14.85
2022-09-06T03:32:29.207Z,14.67
2022-09-06T03:35:00.551Z,14.61
2022-09-06T03:37:30.532Z,14.67
2022-09-06T03:40:00.906Z,14.55
2022-09-06T03:42:30.900Z,14.87
2022-09-06T03:45:02.751Z,14.86
2022-09-06T03:47:34.247Z,14.69
2022-09-06T03:50:04.323Z,14.72
2022-09-06T03:52:34.511Z,14.65
2022-09-06T03:55:05.274Z,14.42
2022-09-06T03:57:35.475Z,14.59
2022-09-06T04:00:06.183Z,14.62
2022-09-06T04:02:38.190Z,14.87
2022-09-06T04:05:08.848Z,14.74
2022-09-06T04:07:38.804Z,14.64
2022-09-06T04:10:09.351Z,14.73
2022-09-06T04:12:39.375Z,14.53
2022-09-06T04:15:10.930Z,14.49
2022-09-06T04:17:45.272Z,14.45
2022-09-06T04:20:15.923Z,14.50
2022-09-06T04:22:45.765Z,14.61
2022-09-06T04:25:15.992Z,14.57
2022-09-06T04:27:46.059Z,14.55
2022-09-06T04:30:15.949Z,14.71
2022-09-06T04:32:47.401Z,14.84
2022-09-06T04:35:17.508Z,14.94
2022-09-06T04:37:47.331Z,15.02
2022-09-06T04:40:17.384Z,14.92
2022-09-06T04:42:47.292Z,14.79
2022-09-06T04:45:17.246Z,14.69
2022-09-06T04:47:50.404Z,14.76
2022-09-06T04:50:20.485Z,14.72
2022-09-06T04:52:50.367Z,14.71
2022-09-06T04:55:20.524Z,14.80
2022-09-06T04:57:51.308Z,14.73
2022-09-06T05:00:21.571Z,14.67
2022-09-06T05:02:52.773Z,14.72
2022-09-06T05:05:23.470Z,15.00
2022-09-06T05:07:54.152Z,14.91
2022-09-06T05:10:24.778Z,15.27
2022-09-06T05:12:55.808Z,15.18
2022-09-06T05:15:26.505Z,15.34
2022-09-06T05:18:04.994Z,15.50
2022-09-06T05:20:35.135Z,15.84
2022-09-06T05:23:05.002Z,15.76
2022-09-06T05:25:35.059Z,16.01
2022-09-06T05:28:05.065Z,16.16
2022-09-06T05:30:36.035Z,16.24
2022-09-06T05:33:07.587Z,16.49
2022-09-06T05:35:37.844Z,16.61
2022-09-06T05:38:07.887Z,16.70
2022-09-06T05:40:37.901Z,16.80
2022-09-06T05:43:07.878Z,16.78
2022-09-06T05:45:37.989Z,16.75
2022-09-06T05:48:09.761Z,16.88
2022-09-06T05:50:39.786Z,16.93
2022-09-06T05:53:10.216Z,17.16
2022-09-06T05:55:42.861Z,17.35
2022-09-06T05:58:13.128Z,17.32
2022-09-06T06:00:43.686Z,17.48
2022-09-06T06:03:14.859Z,17.57
2022-09-06T06:05:47.903Z,17.88
2022-09-06T06:08:17.804Z,18.04
2022-09-06T06:10:47.703Z,18.03
2022-09-06T06:13:17.623Z,18.25
2022-09-06T06:15:47.581Z,18.36
2022-09-06T06:18:19.983Z,18.19
2022-09-06T06:20:50.647Z,18.34
2022-09-06T06:23:20.560Z,18.59
2022-09-06T06:25:50.759Z,18.83
2022-09-06T06:28:20.740Z,18.88
2022-09-06T06:30:51.129Z,18.93
2022-09-06T06:33:22.431Z,18.91
2022-09-06T06:36:00.103Z,19.02
2022-09-06T06:38:33.790Z,18.85
2022-09-06T06:41:06.807Z,19.12
2022-09-06T06:43:38.722Z,19.36
2022-09-06T06:46:10.561Z,19.45
2022-09-06T06:48:43.410Z,19.46
2022-09-06T06:51:15.755Z,19.30
2022-09-06T06:53:47.527Z,19.43
2022-09-06T06:56:20.207Z,19.45
2022-09-06T06:58:52.476Z,19.66
2022-09-06T07:01:24.270Z,19.79
2022-09-06T07:03:55.988Z,19.91
2022-09-06T07:09:19.388Z,20.05
2022-09-06T07:11:50.011Z,20.10
2022-09-06T07:14:20.451Z,20.03
2022-09-06T07:16:51.837Z,19.90
2022-09-06T07:22:13.761Z,20.27
2022-09-06T07:24:43.947Z,20.43
2022-09-06T07:30:03.886Z,20.31
2022-09-06T07:32:35.817Z,20.36
2022-09-06T07:35:08.338Z,20.39
2022-09-06T07:37:38.312Z,20.43
2022-09-06T07:40:09.847Z,20.44
2022-09-06T07:42:39.804Z,20.57
2022-09-06T07:45:10.858Z,20.74
2022-09-06T07:53:30.827Z,20.95
2022-09-06T07:56:01.733Z,21.07
2022-09-06T07:58:32.174Z,20.88
2022-09-06T08:01:28.338Z,21.11
2022-09-06T08:04:00.599Z,21.27
2022-09-06T08:09:24.077Z,21.40
2022-09-06T08:11:54.142Z,21.42
2022-09-06T08:14:24.260Z,21.39
2022-09-06T08:16:56.544Z,21.34
2022-09-06T08:19:27.016Z,21.50
2022-09-06T08:21:58.229Z,21.65
2022-09-06T08:24:28.200Z,21.53
2022-09-06T08:26:58.239Z,21.56
2022-09-06T08:29:28.366Z,21.68
2022-09-06T08:31:58.778Z,21.72
2022-09-06T08:34:28.824Z,21.65
2022-09-06T08:37:00.361Z,21.63
2022-09-06T08:39:30.414Z,21.48
2022-09-06T08:42:04.136Z,21.54
2022-09-06T08:47:27.894Z,21.78
2022-09-06T08:50:03.331Z,21.77
2022-09-06T08:53:18.081Z,21.82
2022-09-06T08:55:55.961Z,22.04
2022-09-06T08:58:44.449Z,22.09
2022-09-06T09:01:19.183Z,21.94
2022-09-06T09:03:49.085Z,21.88
2022-09-06T09:06:19.413Z,22.07
2022-09-06T09:09:01.686Z,22.25
2022-09-06T09:11:33.541Z,22.36
2022-09-06T09:14:07.123Z,22.31
2022-09-06T09:16:37.327Z,22.19
2022-09-06T09:19:09.438Z,22.27
2022-09-06T09:21:41.585Z,22.20
2022-09-06T09:24:15.584Z,22.18
2022-09-06T09:26:51.987Z,22.36
2022-09-06T09:29:27.443Z,22.29
2022-09-06T09:31:58.970Z,22.22
2022-09-06T09:34:33.376Z,22.28
2022-09-06T09:40:06.981Z,22.49
2022-09-06T09:42:38.574Z,22.61
2022-09-06T09:45:25.052Z,22.81
2022-09-06T09:47:55.220Z,22.75
2022-09-06T09:50:29.009Z,22.87
2022-09-06T09:53:09.015Z,22.72
2022-09-06T09:55:41.202Z,22.83
2022-09-06T09:58:22.672Z,22.95
2022-09-06T10:01:10.951Z,22.88
2022-09-06T10:09:22.927Z,22.94
2022-09-06T10:12:00.005Z,22.84
2022-09-06T10:14:32.968Z,23.07
2022-09-06T10:17:02.796Z,23.11
2022-09-06T10:19:40.907Z,23.23
2022-09-06T10:22:23.424Z,23.24
2022-09-06T10:25:24.393Z,23.30
2022-09-06T10:28:29.543Z,23.44
2022-09-06T10:31:47.626Z,23.43
2022-09-06T10:34:52.856Z,23.39
2022-09-06T10:37:37.640Z,23.29
2022-09-06T10:40:10.314Z,23.09
2022-09-06T10:42:45.242Z,22.99
2022-09-06T10:45:28.452Z,22.85
2022-09-06T10:48:03.102Z,23.41
2022-09-06T10:50:42.672Z,23.34
2022-09-06T10:53:19.023Z,23.22
2022-09-06T10:55:54.024Z,23.38
2022-09-06T11:01:34.273Z,23.63
2022-09-06T11:04:12.561Z,23.43
2022-09-06T11:06:46.547Z,23.54
2022-09-06T11:09:20.211Z,23.77
2022-09-06T11:11:54.722Z,23.86
2022-09-06T11:14:28.539Z,23.82
2022-09-06T11:17:05.086Z,23.87
2022-09-06T11:19:44.264Z,23.93
2022-09-06T11:22:40.626Z,24.13
2022-09-06T11:25:54.974Z,23.98
2022-09-06T11:28:33.599Z,23.67
2022-09-06T11:31:05.240Z,23.73
2022-09-06T11:33:39.875Z,23.98
2022-09-06T11:36:31.310Z,24.04
2022-09-06T11:39:03.432Z,24.13
2022-09-06T11:41:35.969Z,24.13
2022-09-06T11:44:06.715Z,24.07
2022-09-06T11:46:58.877Z,24.02
2022-09-06T11:49:37.320Z,24.04
2022-09-06T11:52:59.422Z,24.06
2022-09-06T11:55:38.489Z,24.12
2022-09-06T11:58:21.405Z,24.05
2022-09-06T12:01:24.790Z,24.14
2022-09-06T12:04:10.429Z,24.20
2022-09-06T12:06:44.094Z,24.16
2022-09-06T12:09:34.474Z,24.24
2022-09-06T12:12:05.002Z,24.15
2022-09-06T12:14:40.807Z,24.28
2022-09-06T12:17:28.916Z,24.37
2022-09-06T12:20:06.797Z,24.42
2022-09-06T12:23:05.739Z,24.42
2022-09-06T12:25:58.899Z,24.32
2022-09-06T12:28:34.752Z,24.32
2022-09-06T12:31:34.351Z,24.29
2022-09-06T12:34:10.133Z,24.50
2022-09-06T12:36:50.721Z,24.49
2022-09-06T12:39:22.379Z,24.41
2022-09-06T12:41:56.087Z,24.43
2022-09-06T12:44:30.344Z,24.64
2022-09-06T12:47:05.824Z,24.66
2022-09-06T12:49:35.883Z,24.66
2022-09-06T12:52:10.835Z,24.66
2022-09-06T12:54:48.067Z,24.71
2022-09-06T12:57:22.804Z,24.69
2022-09-06T12:59:54.832Z,24.66
2022-09-06T13:02:33.617Z,24.49
2022-09-06T13:05:07.154Z,24.32
2022-09-06T13:07:42.212Z,24.23
2022-09-06T13:10:16.276Z,24.32
2022-09-06T13:12:50.480Z,24.37
2022-09-06T13:15:25.150Z,24.40
2022-09-06T13:17:56.719Z,24.33
2022-09-06T13:20:29.484Z,24.31
2022-09-06T13:23:11.640Z,24.24
2022-09-06T13:25:50.826Z,24.29
2022-09-06T13:28:28.924Z,24.34
2022-09-06T13:31:11.206Z,24.34
2022-09-06T13:33:42.992Z,24.38
2022-09-06T13:36:23.906Z,24.40
2022-09-06T13:38:53.815Z,24.29
2022-09-06T13:41:40.711Z,24.29
2022-09-06T13:44:31.385Z,24.26
2022-09-06T13:47:01.264Z,24.26
2022-09-06T13:49:31.504Z,24.37
2022-09-06T13:52:03.113Z,24.44
2022-09-06T13:54:34.145Z,24.43
2022-09-06T13:57:05.571Z,24.37
2022-09-06T13:59:35.523Z,24.39
2022-09-06T14:02:08.409Z,24.34
2022-09-06T14:04:38.840Z,24.30
2022-09-06T14:07:09.019Z,24.30
2022-09-06T14:09:39.270Z,24.28
2022-09-06T14:12:41.703Z,24.34
2022-09-06T14:15:13.421Z,24.30
2022-09-06T14:17:43.766Z,24.38
2022-09-06T14:20:14.327Z,24.40
2022-09-06T14:22:44.359Z,24.41
2022-09-06T14:25:14.716Z,24.42
2022-09-06T14:27:48.551Z,24.31
2022-09-06T14:30:18.788Z,24.34
2022-09-06T14:32:48.531Z,24.31
2022-09-06T14:35:18.711Z,24.29
2022-09-06T14:37:50.894Z,24.24
2022-09-06T14:40:36.332Z,24.24
2022-09-06T14:43:07.661Z,24.22
2022-09-06T14:45:38.027Z,24.33
2022-09-06T14:48:08.078Z,24.34
2022-09-06T14:50:38.372Z,24.35
2022-09-06T14:53:39.819Z,24.36
2022-09-06T14:56:11.791Z,24.31
2022-09-06T14:58:43.909Z,24.29
2022-09-06T15:01:15.612Z,24.24
2022-09-06T15:03:48.668Z,24.22
2022-09-06T15:06:20.725Z,24.24
2022-09-06T15:08:52.845Z,24.21
2022-09-06T15:11:31.212Z,24.15
2022-09-06T15:14:04.289Z,24.14
2022-09-06T15:16:35.251Z,24.12
2022-09-06T15:19:05.627Z,24.04
2022-09-06T15:21:36.537Z,24.01
2022-09-06T15:24:11.704Z,23.97
2022-09-06T15:26:49.745Z,23.94
2022-09-06T15:29:23.952Z,23.95
2022-09-06T15:32:02.750Z,23.90
2022-09-06T15:34:35.551Z,23.89
2022-09-06T15:37:23.651Z,23.90
2022-09-06T15:40:13.171Z,23.86
2022-09-06T15:42:44.231Z,23.79
2022-09-06T15:45:15.836Z,23.86
2022-09-06T15:47:46.069Z,23.86
2022-09-06T15:50:29.102Z,23.88
2022-09-06T15:53:06.170Z,23.78
2022-09-06T15:55:53.443Z,23.74
2022-09-06T15:58:23.609Z,23.68
2022-09-06T16:01:07.139Z,23.60
2022-09-06T16:03:39.307Z,23.56
2022-09-06T16:06:27.995Z,23.50
2022-09-06T16:09:01.055Z,23.46
2022-09-06T16:11:32.735Z,23.41
2022-09-06T16:14:03.703Z,23.38
2022-09-06T16:16:35.942Z,23.22
2022-09-06T16:19:05.971Z,23.40
2022-09-06T16:21:39.065Z,23.39
2022-09-06T16:24:11.945Z,23.37
2022-09-06T16:26:46.145Z,23.35
2022-09-06T16:29:20.346Z,23.32
2022-09-06T16:31:56.674Z,23.32
2022-09-06T16:34:27.934Z,23.31
2022-09-06T16:36:58.283Z,23.29
2022-09-06T16:39:28.281Z,23.28
2022-09-06T16:41:58.429Z,23.23
2022-09-06T16:44:29.060Z,23.20
2022-09-06T16:47:03.986Z,23.18
2022-09-06T16:49:33.916Z,23.15
2022-09-06T16:52:04.321Z,23.11
2022-09-06T16:54:34.254Z,23.12
2022-09-06T16:57:04.591Z,23.10
2022-09-06T16:59:34.538Z,23.08
2022-09-06T17:02:06.746Z,23.04
2022-09-06T17:04:36.785Z,23.03
2022-09-06T17:07:07.144Z,23.00
2022-09-06T17:09:37.095Z,22.97
2022-09-06T17:12:07.592Z,22.92
2022-09-06T17:14:38.067Z,22.88
2022-09-06T17:17:10.075Z,22.87
2022-09-06T17:19:42.128Z,22.86
2022-09-06T17:22:13.440Z,22.83
2022-09-06T17:24:43.751Z,22.80
2022-09-06T17:27:13.863Z,22.74
2022-09-06T17:29:44.834Z,22.67
2022-09-06T17:32:16.305Z,22.64
2022-09-06T17:34:46.267Z,22.62
2022-09-06T17:37:16.481Z,22.51
2022-09-06T17:39:46.463Z,22.45
2022-09-06T17:42:16.875Z,22.46
2022-09-06T17:44:46.904Z,22.44
2022-09-06T17:47:19.406Z,22.37
2022-09-06T17:49:49.688Z,22.34
2022-09-06T17:52:19.730Z,22.29
2022-09-06T17:54:49.784Z,22.20
2022-09-06T17:57:20.125Z,22.21
2022-09-06T17:59:50.405Z,22.15
2022-09-06T18:02:21.964Z,22.15
2022-09-06T18:04:52.258Z,22.12
2022-09-06T18:07:22.457Z,22.05
2022-09-06T18:09:52.518Z,22.02
2022-09-06T18:12:22.925Z,21.94
2022-09-06T18:14:53.494Z,21.96
2022-09-06T18:17:25.115Z,21.95
2022-09-06T18:19:55.904Z,21.86
2022-09-06T18:22:26.001Z,21.79
2022-09-06T18:24:58.345Z,21.83
2022-09-06T18:27:28.467Z,21.77
2022-09-06T18:29:58.527Z,21.80
2022-09-06T18:32:30.345Z,21.74
2022-09-06T18:35:00.662Z,21.73
2022-09-06T18:37:31.019Z,21.72
2022-09-06T18:40:01.522Z,21.66
2022-09-06T18:42:31.933Z,21.61
2022-09-06T18:45:02.084Z,21.55
2022-09-06T18:47:33.706Z,21.47
2022-09-06T18:50:05.218Z,21.44
2022-09-06T18:52:35.406Z,21.44
2022-09-06T18:55:08.544Z,21.43
2022-09-06T18:57:38.638Z,21.35
2022-09-06T19:00:10.391Z,21.34
2022-09-06T19:02:42.361Z,21.31
2022-09-06T19:05:13.964Z,21.37
2022-09-06T19:07:46.041Z,21.29
2022-09-06T19:10:16.259Z,21.26
2022-09-06T19:12:51.323Z,21.19
2022-09-06T19:15:24.111Z,21.21
2022-09-06T19:17:57.369Z,21.21
2022-09-06T19:20:27.646Z,21.16
2022-09-06T19:22:58.121Z,21.22
2022-09-06T19:25:28.965Z,21.19
2022-09-06T19:27:59.310Z,21.04
2022-09-06T19:30:30.052Z,21.07
2022-09-06T19:33:02.588Z,20.98
2022-09-06T19:35:43.739Z,20.98
2022-09-06T19:38:26.135Z,20.99
2022-09-06T19:41:03.046Z,20.96
2022-09-06T19:43:33.939Z,20.93
2022-09-06T19:46:04.990Z,20.86
2022-09-06T19:48:38.567Z,20.83
2022-09-06T19:51:12.799Z,20.81
2022-09-06T19:53:44.354Z,20.67
2022-09-06T19:56:17.018Z,20.84
2022-09-06T19:58:47.191Z,20.79
2022-09-06T20:01:20.630Z,20.78
2022-09-06T20:03:53.024Z,20.80
2022-09-06T20:06:23.650Z,20.74
2022-09-06T20:08:59.453Z,20.70
2022-09-06T20:11:33.371Z,20.62
2022-09-06T20:14:03.805Z,20.61
2022-09-06T20:16:37.100Z,20.61
2022-09-06T20:19:14.573Z,20.64
2022-09-06T20:21:44.779Z,20.50
2022-09-06T20:24:14.686Z,20.40
2022-09-06T20:26:44.635Z,20.37
2022-09-06T20:29:14.529Z,20.32
2022-09-06T20:31:44.606Z,20.41
2022-09-06T20:34:19.482Z,20.39
2022-09-06T20:36:50.035Z,20.41
2022-09-06T20:39:20.011Z,20.37
2022-09-06T20:41:49.904Z,20.36
2022-09-06T20:44:19.841Z,20.30
2022-09-06T20:46:49.901Z,20.13
2022-09-06T20:49:23.120Z,20.00
2022-09-06T20:52:11.184Z,20.03
2022-09-06T20:54:41.347Z,19.92
2022-09-06T20:57:12.295Z,19.79
2022-09-06T20:59:42.378Z,19.72
2022-09-06T21:02:12.368Z,19.75
2022-09-06T21:04:43.756Z,19.72
2022-09-06T21:07:14.394Z,19.80
2022-09-06T21:09:44.338Z,19.78
2022-09-06T21:12:14.315Z,19.80
2022-09-06T21:14:44.492Z,19.79
2022-09-06T21:17:15.013Z,19.67
2022-09-06T21:19:46.554Z,19.73
2022-09-06T21:22:18.129Z,19.57
2022-09-06T21:24:48.906Z,19.56
2022-09-06T21:27:18.917Z,19.43
2022-09-06T21:29:48.987Z,19.36
2022-09-06T21:32:18.927Z,19.34
2022-09-06T21:34:50.282Z,19.27
2022-09-06T21:37:21.292Z,19.21
2022-09-06T21:39:51.216Z,19.23
2022-09-06T21:42:21.201Z,19.09
2022-09-06T21:44:51.091Z,19.01
2022-09-06T21:47:21.162Z,19.03
2022-09-06T21:49:52.452Z,18.98
2022-09-06T21:52:22.415Z,18.96
2022-09-06T21:54:52.327Z,19.03
2022-09-06T21:57:22.301Z,18.90
2022-09-06T21:59:52.427Z,19.02
2022-09-06T22:02:23.672Z,18.80
2022-09-06T22:04:55.171Z,18.87
2022-09-06T22:07:25.270Z,18.80
2022-09-06T22:09:56.093Z,18.74
2022-09-06T22:12:26.078Z,18.66
2022-09-06T22:14:56.676Z,18.60
2022-09-06T22:17:26.781Z,18.60
2022-09-06T22:19:58.249Z,18.60
2022-09-06T22:22:28.470Z,18.48
2022-09-06T22:24:58.490Z,18.51
2022-09-06T22:27:28.471Z,18.55
2022-09-06T22:29:58.453Z,18.41
2022-09-06T22:32:28.479Z,18.30
2022-09-06T22:34:59.917Z,18.43
2022-09-06T22:37:29.938Z,18.51
2022-09-06T22:40:02.109Z,18.55
2022-09-06T22:42:32.256Z,18.36
2022-09-06T22:45:03.674Z,18.32
2022-09-06T22:47:33.937Z,18.36
2022-09-06T22:50:06.834Z,18.36
2022-09-06T22:52:36.760Z,18.20
2022-09-06T22:55:07.679Z,18.18
2022-09-06T22:57:37.680Z,18.16
2022-09-06T23:00:09.310Z,18.13
2022-09-06T23:02:39.268Z,18.24
2022-09-06T23:05:10.914Z,18.12
2022-09-06T23:07:43.409Z,18.04
2022-09-06T23:10:13.375Z,18.21
2022-09-06T23:12:43.395Z,18.05
2022-09-06T23:15:14.039Z,18.16
2022-09-06T23:17:45.624Z,18.24
2022-09-06T23:20:17.499Z,18.27
2022-09-06T23:22:48.316Z,18.20
2022-09-06T23:25:18.456Z,18.14
2022-09-06T23:27:48.880Z,18.05
2022-09-06T23:30:19.112Z,17.98
2022-09-06T23:32:49.170Z,17.91
2022-09-06T23:35:20.589Z,17.98
2022-09-06T23:37:51.240Z,17.96
2022-09-06T23:40:21.761Z,17.79
2022-09-06T23:42:51.784Z,17.56
2022-09-06T23:45:21.799Z,17.77
2022-09-06T23:47:51.848Z,17.81
2022-09-06T23:50:23.336Z,17.64
2022-09-06T23:52:53.274Z,17.64
2022-09-06T23:55:24.690Z,17.70
2022-09-06T23:57:54.695Z,17.53
